sensor_id;sensor_type;location;lat;lon;timestamp;P1;durP1;ratioP1;P2;durP2;ratioP2
72924;SDS011;61070;50.794;7.054;2023-05-16T00:00:32;12.07;;;5.90;;
72924;SDS011;61070;50.794;7.054;2023-05-16T00:02:59;12.57;;;6.82;;
72924;SDS011;61070;50.794;7.054;2023-05-16T00:05:25;8.40;;;6.03;;
72924;SDS011;61070;50.794;7.054;2023-05-16T00:07:50;21.92;;;7.35;;
72924;SDS011;61070;50.794;7.054;2023-05-16T00:10:16;18.17;;;7.93;;
72924;SDS011;61070;50.794;7.054;2023-05-16T00:12:41;18.05;;;7.40;;
72924;SDS011;61070;50.794;7.054;2023-05-16T00:15:09;15.95;;;6.63;;
72924;SDS011;61070;50.794;7.054;2023-05-16T00:17:36;12.00;;;6.45;;
72924;SDS011;61070;50.794;7.054;2023-05-16T00:20:02;14.38;;;6.63;;
72924;SDS011;61070;50.794;7.054;2023-05-16T00:22:34;13.25;;;6.32;;
72924;SDS011;61070;50.794;7.054;2023-05-16T00:25:00;18.45;;;8.40;;
72924;SDS011;61070;50.794;7.054;2023-05-16T00:27:26;15.23;;;8.23;;
72924;SDS011;61070;50.794;7.054;2023-05-16T00:29:51;14.25;;;8.05;;
72924;SDS011;61070;50.794;7.054;2023-05-16T00:32:16;16.27;;;9.75;;
72924;SDS011;61070;50.794;7.054;2023-05-16T00:34:42;20.85;;;10.52;;
72924;SDS011;61070;50.794;7.054;2023-05-16T00:37:07;16.92;;;10.00;;
72924;SDS011;61070;50.794;7.054;2023-05-16T00:39:33;17.52;;;10.52;;
72924;SDS011;61070;50.794;7.054;2023-05-16T00:41:58;16.55;;;10.73;;
72924;SDS011;61070;50.794;7.054;2023-05-16T00:44:24;15.90;;;10.63;;
72924;SDS011;61070;50.794;7.054;2023-05-16T00:46:49;19.45;;;10.77;;
72924;SDS011;61070;50.794;7.054;2023-05-16T00:49:14;15.88;;;10.35;;
72924;SDS011;61070;50.794;7.054;2023-05-16T00:51:40;20.65;;;11.27;;
72924;SDS011;61070;50.794;7.054;2023-05-16T00:54:05;18.70;;;10.02;;
72924;SDS011;61070;50.794;7.054;2023-05-16T00:56:31;16.83;;;10.40;;
72924;SDS011;61070;50.794;7.054;2023-05-16T00:58:57;21.52;;;11.35;;
72924;SDS011;61070;50.794;7.054;2023-05-16T01:01:24;18.77;;;11.93;;
72924;SDS011;61070;50.794;7.054;2023-05-16T01:03:51;17.50;;;10.77;;
72924;SDS011;61070;50.794;7.054;2023-05-16T01:06:16;20.67;;;11.75;;
72924;SDS011;61070;50.794;7.054;2023-05-16T01:08:41;18.75;;;11.65;;
72924;SDS011;61070;50.794;7.054;2023-05-16T01:11:18;18.05;;;11.85;;
72924;SDS011;61070;50.794;7.054;2023-05-16T01:13:55;18.23;;;10.18;;
72924;SDS011;61070;50.794;7.054;2023-05-16T01:17:28;23.45;;;11.23;;
72924;SDS011;61070;50.794;7.054;2023-05-16T01:25:10;17.90;;;11.80;;
72924;SDS011;61070;50.794;7.054;2023-05-16T01:27:41;18.63;;;11.93;;
72924;SDS011;61070;50.794;7.054;2023-05-16T01:30:17;21.48;;;12.35;;
72924;SDS011;61070;50.794;7.054;2023-05-16T01:32:43;17.83;;;12.32;;
72924;SDS011;61070;50.794;7.054;2023-05-16T01:35:10;19.60;;;12.85;;
72924;SDS011;61070;50.794;7.054;2023-05-16T01:37:41;24.92;;;12.98;;
72924;SDS011;61070;50.794;7.054;2023-05-16T01:40:29;15.95;;;10.85;;
72924;SDS011;61070;50.794;7.054;2023-05-16T01:43:03;15.30;;;10.27;;
72924;SDS011;61070;50.794;7.054;2023-05-16T01:45:34;16.55;;;11.52;;
72924;SDS011;61070;50.794;7.054;2023-05-16T01:48:04;16.85;;;10.63;;
72924;SDS011;61070;50.794;7.054;2023-05-16T01:50:33;19.00;;;10.95;;
72924;SDS011;61070;50.794;7.054;2023-05-16T01:53:05;16.10;;;10.98;;
72924;SDS011;61070;50.794;7.054;2023-05-16T01:58:12;19.75;;;11.95;;
72924;SDS011;61070;50.794;7.054;2023-05-16T02:00:39;21.30;;;12.20;;
72924;SDS011;61070;50.794;7.054;2023-05-16T02:03:05;18.50;;;11.85;;
72924;SDS011;61070;50.794;7.054;2023-05-16T02:05:31;18.95;;;11.85;;
72924;SDS011;61070;50.794;7.054;2023-05-16T02:07:56;19.90;;;10.50;;
72924;SDS011;61070;50.794;7.054;2023-05-16T02:10:23;17.13;;;10.63;;
72924;SDS011;61070;50.794;7.054;2023-05-16T02:12:49;17.83;;;11.55;;
72924;SDS011;61070;50.794;7.054;2023-05-16T02:15:14;18.63;;;12.40;;
72924;SDS011;61070;50.794;7.054;2023-05-16T02:17:40;20.40;;;12.70;;
72924;SDS011;61070;50.794;7.054;2023-05-16T02:20:05;25.98;;;15.13;;
72924;SDS011;61070;50.794;7.054;2023-05-16T02:22:33;27.67;;;15.18;;
72924;SDS011;61070;50.794;7.054;2023-05-16T02:24:59;30.70;;;17.17;;
72924;SDS011;61070;50.794;7.054;2023-05-16T02:27:27;32.45;;;18.33;;
72924;SDS011;61070;50.794;7.054;2023-05-16T02:29:55;28.25;;;17.17;;
72924;SDS011;61070;50.794;7.054;2023-05-16T02:32:21;30.80;;;17.27;;
72924;SDS011;61070;50.794;7.054;2023-05-16T02:34:46;30.80;;;17.80;;
72924;SDS011;61070;50.794;7.054;2023-05-16T02:37:11;32.38;;;17.92;;
72924;SDS011;61070;50.794;7.054;2023-05-16T02:39:37;29.30;;;17.48;;
72924;SDS011;61070;50.794;7.054;2023-05-16T02:42:03;31.05;;;18.63;;
72924;SDS011;61070;50.794;7.054;2023-05-16T02:44:28;33.28;;;19.48;;
72924;SDS011;61070;50.794;7.054;2023-05-16T02:46:54;30.88;;;18.27;;
72924;SDS011;61070;50.794;7.054;2023-05-16T02:49:19;27.60;;;14.70;;
72924;SDS011;61070;50.794;7.054;2023-05-16T02:51:45;22.13;;;12.57;;
72924;SDS011;61070;50.794;7.054;2023-05-16T02:54:11;20.55;;;11.85;;
72924;SDS011;61070;50.794;7.054;2023-05-16T02:56:36;30.88;;;11.48;;
72924;SDS011;61070;50.794;7.054;2023-05-16T02:59:01;18.20;;;10.60;;
72924;SDS011;61070;50.794;7.054;2023-05-16T03:01:28;15.75;;;8.00;;
72924;SDS011;61070;50.794;7.054;2023-05-16T03:03:53;12.23;;;6.97;;
72924;SDS011;61070;50.794;7.054;2023-05-16T03:06:19;16.02;;;7.22;;
72924;SDS011;61070;50.794;7.054;2023-05-16T03:08:44;14.65;;;5.65;;
72924;SDS011;61070;50.794;7.054;2023-05-16T03:11:11;13.93;;;5.35;;
72924;SDS011;61070;50.794;7.054;2023-05-16T03:13:36;18.02;;;5.70;;
72924;SDS011;61070;50.794;7.054;2023-05-16T03:16:01;17.25;;;4.95;;
72924;SDS011;61070;50.794;7.054;2023-05-16T03:18:27;14.50;;;5.28;;
72924;SDS011;61070;50.794;7.054;2023-05-16T03:20:52;12.13;;;4.97;;
72924;SDS011;61070;50.794;7.054;2023-05-16T03:23:18;12.10;;;5.32;;
72924;SDS011;61070;50.794;7.054;2023-05-16T03:25:44;15.18;;;4.68;;
72924;SDS011;61070;50.794;7.054;2023-05-16T03:28:10;14.00;;;4.72;;
72924;SDS011;61070;50.794;7.054;2023-05-16T03:30:35;21.73;;;4.90;;
72924;SDS011;61070;50.794;7.054;2023-05-16T03:33:00;17.95;;;5.15;;
72924;SDS011;61070;50.794;7.054;2023-05-16T03:35:30;19.38;;;4.97;;
72924;SDS011;61070;50.794;7.054;2023-05-16T03:37:55;15.48;;;5.13;;
72924;SDS011;61070;50.794;7.054;2023-05-16T03:40:21;19.30;;;5.55;;
72924;SDS011;61070;50.794;7.054;2023-05-16T03:42:46;19.85;;;5.35;;
72924;SDS011;61070;50.794;7.054;2023-05-16T03:45:11;16.15;;;5.70;;
72924;SDS011;61070;50.794;7.054;2023-05-16T03:47:37;20.00;;;5.63;;
72924;SDS011;61070;50.794;7.054;2023-05-16T03:50:03;15.43;;;5.78;;
72924;SDS011;61070;50.794;7.054;2023-05-16T03:52:29;20.63;;;5.38;;
72924;SDS011;61070;50.794;7.054;2023-05-16T03:54:54;20.48;;;6.28;;
72924;SDS011;61070;50.794;7.054;2023-05-16T03:57:19;19.80;;;6.18;;
72924;SDS011;61070;50.794;7.054;2023-05-16T03:59:45;20.80;;;6.10;;
72924;SDS011;61070;50.794;7.054;2023-05-16T04:02:10;16.52;;;5.97;;
72924;SDS011;61070;50.794;7.054;2023-05-16T04:04:35;18.60;;;6.05;;
72924;SDS011;61070;50.794;7.054;2023-05-16T04:07:01;23.25;;;5.85;;
72924;SDS011;61070;50.794;7.054;2023-05-16T04:09:26;20.60;;;6.43;;
72924;SDS011;61070;50.794;7.054;2023-05-16T04:11:52;21.55;;;6.68;;
72924;SDS011;61070;50.794;7.054;2023-05-16T04:14:19;21.30;;;6.45;;
72924;SDS011;61070;50.794;7.054;2023-05-16T04:16:44;31.08;;;7.22;;
72924;SDS011;61070;50.794;7.054;2023-05-16T04:19:10;29.02;;;6.65;;
72924;SDS011;61070;50.794;7.054;2023-05-16T04:21:35;21.48;;;6.40;;
72924;SDS011;61070;50.794;7.054;2023-05-16T04:24:01;28.52;;;7.40;;
72924;SDS011;61070;50.794;7.054;2023-05-16T04:26:26;26.13;;;7.05;;
72924;SDS011;61070;50.794;7.054;2023-05-16T04:28:51;25.10;;;6.70;;
72924;SDS011;61070;50.794;7.054;2023-05-16T04:31:17;28.15;;;5.72;;
72924;SDS011;61070;50.794;7.054;2023-05-16T04:33:42;32.58;;;5.82;;
72924;SDS011;61070;50.794;7.054;2023-05-16T04:36:07;27.83;;;6.15;;
72924;SDS011;61070;50.794;7.054;2023-05-16T04:38:33;18.63;;;5.65;;
72924;SDS011;61070;50.794;7.054;2023-05-16T04:40:58;22.85;;;4.65;;
72924;SDS011;61070;50.794;7.054;2023-05-16T04:43:24;27.77;;;5.38;;
72924;SDS011;61070;50.794;7.054;2023-05-16T04:45:50;24.67;;;4.85;;
72924;SDS011;61070;50.794;7.054;2023-05-16T04:48:17;14.95;;;4.25;;
72924;SDS011;61070;50.794;7.054;2023-05-16T04:50:43;20.75;;;5.45;;
72924;SDS011;61070;50.794;7.054;2023-05-16T04:53:08;26.10;;;7.30;;
72924;SDS011;61070;50.794;7.054;2023-05-16T04:55:33;31.92;;;7.43;;
72924;SDS011;61070;50.794;7.054;2023-05-16T04:57:59;28.65;;;6.28;;
72924;SDS011;61070;50.794;7.054;2023-05-16T05:00:24;33.90;;;7.32;;
72924;SDS011;61070;50.794;7.054;2023-05-16T05:02:50;22.13;;;6.32;;
72924;SDS011;61070;50.794;7.054;2023-05-16T05:05:16;22.17;;;6.20;;
72924;SDS011;61070;50.794;7.054;2023-05-16T05:07:41;18.85;;;5.07;;
72924;SDS011;61070;50.794;7.054;2023-05-16T05:10:07;28.48;;;5.30;;
72924;SDS011;61070;50.794;7.054;2023-05-16T05:12:34;34.80;;;5.78;;
72924;SDS011;61070;50.794;7.054;2023-05-16T05:14:59;30.90;;;5.50;;
72924;SDS011;61070;50.794;7.054;2023-05-16T05:17:25;24.30;;;6.00;;
72924;SDS011;61070;50.794;7.054;2023-05-16T05:19:50;29.70;;;5.80;;
72924;SDS011;61070;50.794;7.054;2023-05-16T05:22:15;25.40;;;5.43;;
72924;SDS011;61070;50.794;7.054;2023-05-16T05:24:41;30.35;;;5.93;;
72924;SDS011;61070;50.794;7.054;2023-05-16T05:27:06;33.65;;;7.90;;
72924;SDS011;61070;50.794;7.054;2023-05-16T05:29:32;30.27;;;5.55;;
72924;SDS011;61070;50.794;7.054;2023-05-16T05:31:57;18.27;;;5.05;;
72924;SDS011;61070;50.794;7.054;2023-05-16T05:34:23;22.98;;;4.72;;
72924;SDS011;61070;50.794;7.054;2023-05-16T05:36:48;21.83;;;5.05;;
72924;SDS011;61070;50.794;7.054;2023-05-16T05:39:13;17.15;;;5.43;;
72924;SDS011;61070;50.794;7.054;2023-05-16T05:41:39;30.08;;;5.28;;
72924;SDS011;61070;50.794;7.054;2023-05-16T05:44:04;18.88;;;4.72;;
72924;SDS011;61070;50.794;7.054;2023-05-16T05:46:30;18.00;;;4.75;;
72924;SDS011;61070;50.794;7.054;2023-05-16T05:48:57;23.00;;;4.88;;
72924;SDS011;61070;50.794;7.054;2023-05-16T05:51:23;24.95;;;4.57;;
72924;SDS011;61070;50.794;7.054;2023-05-16T05:53:48;21.83;;;5.15;;
72924;SDS011;61070;50.794;7.054;2023-05-16T05:56:14;24.00;;;4.85;;
72924;SDS011;61070;50.794;7.054;2023-05-16T05:58:39;18.55;;;5.45;;
72924;SDS011;61070;50.794;7.054;2023-05-16T06:01:06;27.95;;;5.53;;
72924;SDS011;61070;50.794;7.054;2023-05-16T06:03:31;18.15;;;3.95;;
72924;SDS011;61070;50.794;7.054;2023-05-16T06:05:56;22.52;;;4.75;;
72924;SDS011;61070;50.794;7.054;2023-05-16T06:08:22;18.58;;;3.35;;
72924;SDS011;61070;50.794;7.054;2023-05-16T06:10:47;31.48;;;4.57;;
72924;SDS011;61070;50.794;7.054;2023-05-16T06:13:12;20.33;;;3.88;;
72924;SDS011;61070;50.794;7.054;2023-05-16T06:15:38;16.70;;;3.95;;
72924;SDS011;61070;50.794;7.054;2023-05-16T06:18:03;20.17;;;4.18;;
72924;SDS011;61070;50.794;7.054;2023-05-16T06:20:28;19.50;;;3.40;;
72924;SDS011;61070;50.794;7.054;2023-05-16T06:22:53;16.25;;;3.63;;
72924;SDS011;61070;50.794;7.054;2023-05-16T06:25:19;23.10;;;3.50;;
72924;SDS011;61070;50.794;7.054;2023-05-16T06:27:44;18.80;;;3.30;;
72924;SDS011;61070;50.794;7.054;2023-05-16T06:30:10;27.13;;;3.88;;
72924;SDS011;61070;50.794;7.054;2023-05-16T06:32:35;12.25;;;2.90;;
72924;SDS011;61070;50.794;7.054;2023-05-16T06:35:01;20.08;;;3.13;;
72924;SDS011;61070;50.794;7.054;2023-05-16T06:37:26;17.85;;;2.33;;
72924;SDS011;61070;50.794;7.054;2023-05-16T06:39:52;14.07;;;3.15;;
72924;SDS011;61070;50.794;7.054;2023-05-16T06:42:17;18.02;;;3.15;;
72924;SDS011;61070;50.794;7.054;2023-05-16T06:44:44;15.77;;;2.30;;
72924;SDS011;61070;50.794;7.054;2023-05-16T06:47:09;15.73;;;2.55;;
72924;SDS011;61070;50.794;7.054;2023-05-16T06:49:35;13.43;;;2.25;;
72924;SDS011;61070;50.794;7.054;2023-05-16T06:52:00;19.10;;;2.67;;
72924;SDS011;61070;50.794;7.054;2023-05-16T06:54:26;14.38;;;2.30;;
72924;SDS011;61070;50.794;7.054;2023-05-16T06:56:51;18.13;;;2.75;;
72924;SDS011;61070;50.794;7.054;2023-05-16T06:59:17;18.73;;;2.70;;
72924;SDS011;61070;50.794;7.054;2023-05-16T07:01:42;18.00;;;2.13;;
72924;SDS011;61070;50.794;7.054;2023-05-16T07:04:07;19.27;;;2.35;;
72924;SDS011;61070;50.794;7.054;2023-05-16T07:06:32;12.75;;;3.00;;
72924;SDS011;61070;50.794;7.054;2023-05-16T07:08:58;14.77;;;1.95;;
72924;SDS011;61070;50.794;7.054;2023-05-16T07:11:23;18.25;;;2.53;;
72924;SDS011;61070;50.794;7.054;2023-05-16T07:13:48;13.60;;;2.35;;
72924;SDS011;61070;50.794;7.054;2023-05-16T07:16:14;16.70;;;2.28;;
72924;SDS011;61070;50.794;7.054;2023-05-16T07:18:39;13.15;;;2.53;;
72924;SDS011;61070;50.794;7.054;2023-05-16T07:21:04;9.90;;;2.80;;
72924;SDS011;61070;50.794;7.054;2023-05-16T07:23:30;15.18;;;2.55;;
72924;SDS011;61070;50.794;7.054;2023-05-16T07:25:55;14.45;;;2.63;;
72924;SDS011;61070;50.794;7.054;2023-05-16T07:28:21;16.10;;;2.83;;
72924;SDS011;61070;50.794;7.054;2023-05-16T07:30:47;14.95;;;1.98;;
72924;SDS011;61070;50.794;7.054;2023-05-16T07:33:12;13.43;;;1.90;;
72924;SDS011;61070;50.794;7.054;2023-05-16T07:35:38;15.10;;;2.70;;
72924;SDS011;61070;50.794;7.054;2023-05-16T07:38:03;7.47;;;1.70;;
72924;SDS011;61070;50.794;7.054;2023-05-16T07:40:29;14.88;;;2.33;;
72924;SDS011;61070;50.794;7.054;2023-05-16T07:42:54;14.80;;;2.55;;
72924;SDS011;61070;50.794;7.054;2023-05-16T07:45:20;12.98;;;2.08;;
72924;SDS011;61070;50.794;7.054;2023-05-16T07:47:45;15.75;;;2.33;;
72924;SDS011;61070;50.794;7.054;2023-05-16T07:50:10;14.82;;;1.80;;
72924;SDS011;61070;50.794;7.054;2023-05-16T07:52:36;10.32;;;1.67;;
72924;SDS011;61070;50.794;7.054;2023-05-16T07:55:01;9.15;;;2.45;;
72924;SDS011;61070;50.794;7.054;2023-05-16T07:57:27;10.45;;;2.00;;
72924;SDS011;61070;50.794;7.054;2023-05-16T07:59:53;12.98;;;1.77;;
72924;SDS011;61070;50.794;7.054;2023-05-16T08:02:19;10.13;;;1.73;;
72924;SDS011;61070;50.794;7.054;2023-05-16T08:04:45;13.63;;;3.38;;
72924;SDS011;61070;50.794;7.054;2023-05-16T08:07:10;10.98;;;2.03;;
72924;SDS011;61070;50.794;7.054;2023-05-16T08:09:35;4.65;;;1.45;;
72924;SDS011;61070;50.794;7.054;2023-05-16T08:12:01;16.42;;;2.88;;
72924;SDS011;61070;50.794;7.054;2023-05-16T08:14:28;15.40;;;1.73;;
72924;SDS011;61070;50.794;7.054;2023-05-16T08:16:56;10.75;;;1.73;;
72924;SDS011;61070;50.794;7.054;2023-05-16T08:19:22;9.32;;;1.30;;
72924;SDS011;61070;50.794;7.054;2023-05-16T08:21:47;15.07;;;2.45;;
72924;SDS011;61070;50.794;7.054;2023-05-16T08:24:12;5.70;;;1.67;;
72924;SDS011;61070;50.794;7.054;2023-05-16T08:26:37;13.85;;;1.23;;
72924;SDS011;61070;50.794;7.054;2023-05-16T08:29:03;6.97;;;2.13;;
72924;SDS011;61070;50.794;7.054;2023-05-16T08:31:28;5.90;;;1.73;;
72924;SDS011;61070;50.794;7.054;2023-05-16T08:33:54;12.00;;;2.30;;
72924;SDS011;61070;50.794;7.054;2023-05-16T08:36:19;12.32;;;1.95;;
72924;SDS011;61070;50.794;7.054;2023-05-16T08:38:45;10.52;;;1.70;;
72924;SDS011;61070;50.794;7.054;2023-05-16T08:41:10;14.43;;;1.85;;
72924;SDS011;61070;50.794;7.054;2023-05-16T08:43:35;13.65;;;2.13;;
72924;SDS011;61070;50.794;7.054;2023-05-16T08:46:01;11.00;;;2.35;;
72924;SDS011;61070;50.794;7.054;2023-05-16T08:48:26;12.43;;;1.83;;
72924;SDS011;61070;50.794;7.054;2023-05-16T08:50:52;13.95;;;1.65;;
72924;SDS011;61070;50.794;7.054;2023-05-16T08:53:20;6.43;;;1.27;;
72924;SDS011;61070;50.794;7.054;2023-05-16T08:55:47;9.70;;;2.38;;
72924;SDS011;61070;50.794;7.054;2023-05-16T08:58:14;11.93;;;2.05;;
72924;SDS011;61070;50.794;7.054;2023-05-16T09:00:40;10.77;;;1.73;;
72924;SDS011;61070;50.794;7.054;2023-05-16T09:03:06;9.50;;;1.70;;
72924;SDS011;61070;50.794;7.054;2023-05-16T09:05:31;13.50;;;1.73;;
72924;SDS011;61070;50.794;7.054;2023-05-16T09:07:57;13.82;;;2.08;;
72924;SDS011;61070;50.794;7.054;2023-05-16T09:10:23;16.00;;;4.22;;
72924;SDS011;61070;50.794;7.054;2023-05-16T09:12:48;6.15;;;2.05;;
72924;SDS011;61070;50.794;7.054;2023-05-16T09:15:16;12.20;;;3.00;;
72924;SDS011;61070;50.794;7.054;2023-05-16T09:17:44;14.65;;;2.95;;
72924;SDS011;61070;50.794;7.054;2023-05-16T09:20:11;13.68;;;2.78;;
72924;SDS011;61070;50.794;7.054;2023-05-16T09:22:51;16.33;;;4.13;;
72924;SDS011;61070;50.794;7.054;2023-05-16T09:25:21;18.88;;;2.95;;
72924;SDS011;61070;50.794;7.054;2023-05-16T09:27:47;14.40;;;2.67;;
72924;SDS011;61070;50.794;7.054;2023-05-16T09:30:17;11.38;;;2.92;;
72924;SDS011;61070;50.794;7.054;2023-05-16T09:32:45;15.23;;;2.55;;
72924;SDS011;61070;50.794;7.054;2023-05-16T09:35:14;16.15;;;2.92;;
72924;SDS011;61070;50.794;7.054;2023-05-16T09:37:50;7.88;;;2.63;;
72924;SDS011;61070;50.794;7.054;2023-05-16T09:40:21;12.30;;;2.45;;
72924;SDS011;61070;50.794;7.054;2023-05-16T09:42:50;11.65;;;2.28;;
72924;SDS011;61070;50.794;7.054;2023-05-16T09:45:31;16.90;;;2.00;;
72924;SDS011;61070;50.794;7.054;2023-05-16T09:48:07;21.27;;;2.13;;
72924;SDS011;61070;50.794;7.054;2023-05-16T09:50:34;7.88;;;1.83;;
72924;SDS011;61070;50.794;7.054;2023-05-16T09:53:00;4.63;;;1.35;;
72924;SDS011;61070;50.794;7.054;2023-05-16T09:55:26;9.25;;;1.38;;
72924;SDS011;61070;50.794;7.054;2023-05-16T09:57:52;15.73;;;2.55;;
72924;SDS011;61070;50.794;7.054;2023-05-16T10:00:17;9.13;;;1.38;;
72924;SDS011;61070;50.794;7.054;2023-05-16T10:02:43;7.57;;;1.35;;
72924;SDS011;61070;50.794;7.054;2023-05-16T10:05:08;5.30;;;1.45;;
72924;SDS011;61070;50.794;7.054;2023-05-16T10:07:34;12.20;;;2.17;;
72924;SDS011;61070;50.794;7.054;2023-05-16T10:10:04;10.18;;;2.10;;
72924;SDS011;61070;50.794;7.054;2023-05-16T10:12:31;11.55;;;2.13;;
72924;SDS011;61070;50.794;7.054;2023-05-16T10:14:58;9.73;;;2.25;;
72924;SDS011;61070;50.794;7.054;2023-05-16T10:17:27;7.15;;;1.90;;
72924;SDS011;61070;50.794;7.054;2023-05-16T10:19:56;12.65;;;2.92;;
72924;SDS011;61070;50.794;7.054;2023-05-16T10:22:25;14.90;;;1.95;;
72924;SDS011;61070;50.794;7.054;2023-05-16T10:24:59;7.32;;;2.10;;
72924;SDS011;61070;50.794;7.054;2023-05-16T10:27:33;7.68;;;1.92;;
72924;SDS011;61070;50.794;7.054;2023-05-16T10:30:00;5.15;;;1.45;;
72924;SDS011;61070;50.794;7.054;2023-05-16T10:32:26;9.80;;;2.40;;
72924;SDS011;61070;50.794;7.054;2023-05-16T10:34:52;8.60;;;2.05;;
72924;SDS011;61070;50.794;7.054;2023-05-16T10:37:19;7.03;;;1.70;;
72924;SDS011;61070;50.794;7.054;2023-05-16T10:39:45;6.90;;;1.90;;
72924;SDS011;61070;50.794;7.054;2023-05-16T10:42:11;4.93;;;2.05;;
72924;SDS011;61070;50.794;7.054;2023-05-16T10:44:42;9.63;;;2.00;;
72924;SDS011;61070;50.794;7.054;2023-05-16T10:47:07;4.93;;;1.50;;
72924;SDS011;61070;50.794;7.054;2023-05-16T10:49:32;5.10;;;1.70;;
72924;SDS011;61070;50.794;7.054;2023-05-16T10:54:40;12.45;;;2.65;;
72924;SDS011;61070;50.794;7.054;2023-05-16T10:57:15;8.57;;;1.75;;
72924;SDS011;61070;50.794;7.054;2023-05-16T10:59:45;4.72;;;1.60;;
72924;SDS011;61070;50.794;7.054;2023-05-16T11:02:22;6.32;;;1.55;;
72924;SDS011;61070;50.794;7.054;2023-05-16T11:04:49;5.90;;;1.88;;
72924;SDS011;61070;50.794;7.054;2023-05-16T11:07:19;10.60;;;1.80;;
72924;SDS011;61070;50.794;7.054;2023-05-16T11:10:00;10.07;;;1.25;;
72924;SDS011;61070;50.794;7.054;2023-05-16T11:12:35;9.68;;;1.70;;
72924;SDS011;61070;50.794;7.054;2023-05-16T11:15:01;3.65;;;1.60;;
72924;SDS011;61070;50.794;7.054;2023-05-16T11:18:07;7.07;;;1.40;;
72924;SDS011;61070;50.794;7.054;2023-05-16T11:20:37;6.25;;;1.50;;
72924;SDS011;61070;50.794;7.054;2023-05-16T11:25:46;13.00;;;1.65;;
72924;SDS011;61070;50.794;7.054;2023-05-16T11:28:14;7.10;;;1.73;;
72924;SDS011;61070;50.794;7.054;2023-05-16T11:30:47;7.85;;;1.27;;
72924;SDS011;61070;50.794;7.054;2023-05-16T11:33:15;9.20;;;1.42;;
72924;SDS011;61070;50.794;7.054;2023-05-16T11:35:41;4.40;;;1.00;;
72924;SDS011;61070;50.794;7.054;2023-05-16T11:38:13;7.15;;;1.90;;
72924;SDS011;61070;50.794;7.054;2023-05-16T11:40:43;13.82;;;1.70;;
72924;SDS011;61070;50.794;7.054;2023-05-16T11:43:09;8.55;;;1.92;;
72924;SDS011;61070;50.794;7.054;2023-05-16T11:45:35;4.88;;;1.30;;
72924;SDS011;61070;50.794;7.054;2023-05-16T11:48:01;5.85;;;1.15;;
72924;SDS011;61070;50.794;7.054;2023-05-16T11:50:28;8.90;;;1.80;;
72924;SDS011;61070;50.794;7.054;2023-05-16T11:52:55;10.13;;;1.80;;
72924;SDS011;61070;50.794;7.054;2023-05-16T11:55:25;10.32;;;1.98;;
72924;SDS011;61070;50.794;7.054;2023-05-16T11:57:52;13.57;;;1.88;;
72924;SDS011;61070;50.794;7.054;2023-05-16T12:00:19;8.65;;;1.90;;
72924;SDS011;61070;50.794;7.054;2023-05-16T12:02:46;3.95;;;1.15;;
72924;SDS011;61070;50.794;7.054;2023-05-16T12:05:12;5.35;;;1.23;;
72924;SDS011;61070;50.794;7.054;2023-05-16T12:07:39;8.23;;;1.33;;
72924;SDS011;61070;50.794;7.054;2023-05-16T12:10:06;10.05;;;1.33;;
72924;SDS011;61070;50.794;7.054;2023-05-16T12:12:35;9.23;;;1.33;;
72924;SDS011;61070;50.794;7.054;2023-05-16T12:15:02;7.85;;;1.75;;
72924;SDS011;61070;50.794;7.054;2023-05-16T12:17:30;9.07;;;1.67;;
72924;SDS011;61070;50.794;7.054;2023-05-16T12:19:56;7.95;;;1.75;;
72924;SDS011;61070;50.794;7.054;2023-05-16T12:22:22;12.38;;;1.77;;
72924;SDS011;61070;50.794;7.054;2023-05-16T12:24:49;4.53;;;1.45;;
72924;SDS011;61070;50.794;7.054;2023-05-16T12:27:20;9.77;;;2.42;;
72924;SDS011;61070;50.794;7.054;2023-05-16T12:29:49;9.88;;;2.17;;
72924;SDS011;61070;50.794;7.054;2023-05-16T12:32:18;7.28;;;1.60;;
72924;SDS011;61070;50.794;7.054;2023-05-16T12:34:50;9.45;;;1.45;;
72924;SDS011;61070;50.794;7.054;2023-05-16T12:37:17;8.55;;;1.77;;
72924;SDS011;61070;50.794;7.054;2023-05-16T12:39:43;10.50;;;2.10;;
72924;SDS011;61070;50.794;7.054;2023-05-16T12:42:11;6.50;;;1.95;;
72924;SDS011;61070;50.794;7.054;2023-05-16T12:44:37;4.32;;;1.42;;
72924;SDS011;61070;50.794;7.054;2023-05-16T12:47:03;9.13;;;1.42;;
72924;SDS011;61070;50.794;7.054;2023-05-16T12:49:35;5.90;;;1.67;;
72924;SDS011;61070;50.794;7.054;2023-05-16T12:52:01;8.10;;;1.17;;
72924;SDS011;61070;50.794;7.054;2023-05-16T12:54:29;5.43;;;1.52;;
72924;SDS011;61070;50.794;7.054;2023-05-16T12:56:55;7.50;;;0.80;;
72924;SDS011;61070;50.794;7.054;2023-05-16T12:59:20;9.88;;;1.55;;
72924;SDS011;61070;50.794;7.054;2023-05-16T13:01:45;2.60;;;1.23;;
72924;SDS011;61070;50.794;7.054;2023-05-16T13:04:11;3.03;;;0.65;;
72924;SDS011;61070;50.794;7.054;2023-05-16T13:06:40;3.13;;;1.00;;
72924;SDS011;61070;50.794;7.054;2023-05-16T13:09:06;2.58;;;0.80;;
72924;SDS011;61070;50.794;7.054;2023-05-16T13:11:32;3.65;;;0.80;;
72924;SDS011;61070;50.794;7.054;2023-05-16T13:13:57;4.05;;;1.08;;
72924;SDS011;61070;50.794;7.054;2023-05-16T13:16:22;3.92;;;0.70;;
72924;SDS011;61070;50.794;7.054;2023-05-16T13:18:48;3.00;;;0.70;;
72924;SDS011;61070;50.794;7.054;2023-05-16T13:21:13;4.07;;;1.13;;
72924;SDS011;61070;50.794;7.054;2023-05-16T13:23:38;5.97;;;1.02;;
72924;SDS011;61070;50.794;7.054;2023-05-16T13:26:04;8.10;;;1.00;;
72924;SDS011;61070;50.794;7.054;2023-05-16T13:28:29;7.68;;;1.80;;
72924;SDS011;61070;50.794;7.054;2023-05-16T13:30:56;4.65;;;0.80;;
72924;SDS011;61070;50.794;7.054;2023-05-16T13:33:21;7.00;;;1.17;;
72924;SDS011;61070;50.794;7.054;2023-05-16T13:35:48;6.07;;;1.10;;
72924;SDS011;61070;50.794;7.054;2023-05-16T13:38:15;8.82;;;1.08;;
72924;SDS011;61070;50.794;7.054;2023-05-16T13:40:40;6.32;;;0.82;;
72924;SDS011;61070;50.794;7.054;2023-05-16T13:43:06;6.45;;;0.95;;
72924;SDS011;61070;50.794;7.054;2023-05-16T13:45:32;4.18;;;1.20;;
72924;SDS011;61070;50.794;7.054;2023-05-16T13:47:57;4.22;;;1.20;;
72924;SDS011;61070;50.794;7.054;2023-05-16T13:50:22;5.78;;;1.15;;
72924;SDS011;61070;50.794;7.054;2023-05-16T13:52:48;7.75;;;1.65;;
72924;SDS011;61070;50.794;7.054;2023-05-16T13:55:13;5.28;;;1.20;;
72924;SDS011;61070;50.794;7.054;2023-05-16T13:57:38;4.60;;;1.38;;
72924;SDS011;61070;50.794;7.054;2023-05-16T14:00:04;7.32;;;1.55;;
72924;SDS011;61070;50.794;7.054;2023-05-16T14:02:36;3.55;;;1.10;;
72924;SDS011;61070;50.794;7.054;2023-05-16T14:05:01;2.67;;;1.33;;
72924;SDS011;61070;50.794;7.054;2023-05-16T14:07:27;5.05;;;1.00;;
72924;SDS011;61070;50.794;7.054;2023-05-16T14:09:52;2.08;;;0.70;;
72924;SDS011;61070;50.794;7.054;2023-05-16T14:12:17;5.05;;;0.90;;
72924;SDS011;61070;50.794;7.054;2023-05-16T14:14:42;5.07;;;0.77;;
72924;SDS011;61070;50.794;7.054;2023-05-16T14:17:08;1.88;;;0.65;;
72924;SDS011;61070;50.794;7.054;2023-05-16T14:19:33;3.58;;;0.88;;
72924;SDS011;61070;50.794;7.054;2023-05-16T14:21:58;3.92;;;0.93;;
72924;SDS011;61070;50.794;7.054;2023-05-16T14:24:23;6.13;;;1.10;;
72924;SDS011;61070;50.794;7.054;2023-05-16T14:26:49;3.38;;;0.90;;
72924;SDS011;61070;50.794;7.054;2023-05-16T14:29:18;6.35;;;0.77;;
72924;SDS011;61070;50.794;7.054;2023-05-16T14:31:44;5.18;;;1.10;;
72924;SDS011;61070;50.794;7.054;2023-05-16T14:34:09;2.85;;;1.13;;
72924;SDS011;61070;50.794;7.054;2023-05-16T14:36:34;6.28;;;0.95;;
72924;SDS011;61070;50.794;7.054;2023-05-16T14:39:00;2.70;;;0.88;;
72924;SDS011;61070;50.794;7.054;2023-05-16T14:41:25;5.35;;;1.00;;
72924;SDS011;61070;50.794;7.054;2023-05-16T14:43:50;8.57;;;1.25;;
72924;SDS011;61070;50.794;7.054;2023-05-16T14:46:15;2.80;;;0.90;;